Search for airport 
image banner adimage banner adimage banner ad
image banner ad

SNKB - Aeroclube Airport

Located in Campina Grande, Brazil

ICAO - SNKB, IATA -

Data provided by Airmate  

General information

Coordinates: S7°10'42" W35°59'25"
Elevation is 2273 feet MSL.
Magnetic variation is -21° East
View others Airports in Paraíba

Operational data

Special qualification required
Current time UTC:
Current local time:
METAR: SBKG 090000Z 08010KT CAVOK 24/22 Q1014
TAF: TAF SBKG 082100Z 0900/0912 08010KT 9999 BKN010 TN22/0909Z TX27/0912Z PROB40 0904/0908 4000 BR BKN005 RMK PGU
View NOTAMs / SUP AIP / TFR affecting this airport [VIEW]
Communications frequencies: [VIEW]

Runways:

RWY identifierQFULength (ft)Width (ft)SurfaceLDA (ft)
10262465GRAVEL
28262465GRAVEL

Airport contact information

Address: Campina Grande Brazil

Satellite view of SNKB